Time;durP1;ratioP1;P1;durP2;ratioP2;P2;SDS_P1;SDS_P2;PMS_P1;PMS_P2;Temp;Humidity;BMP_temperature;BMP_pressure;BME280_temperature;BME280_humidity;BME280_pressure;Samples;Min_cycle;Max_cycle;Signal;HPM_P1;HPM_P2
2023/04/16 00:02:09;;;;;;;28.30;24.15;;;9.60;99.90;;;;;;5121745;27;20211;-80
2023/04/16 00:04:36;;;;;;;28.75;23.15;;;9.50;99.90;;;;;;5122403;27;20209;-81
2023/04/16 00:07:02;;;;;;;26.40;21.50;;;9.50;99.90;;;;;;5129220;27;20405;-81
2023/04/16 00:09:30;;;;;;;29.70;26.23;;;9.50;99.90;;;;;;5121720;27;20206;-81
2023/04/16 00:11:57;;;;;;;37.72;27.98;;;9.50;99.90;;;;;;5119932;27;20210;-81
2023/04/16 00:14:24;;;;;;;34.28;27.10;;;9.50;99.90;;;;;;5128511;27;20210;-80
2023/04/16 00:16:51;;;;;;;30.30;26.58;;;9.40;99.90;;;;;;5130658;27;20216;-81
2023/04/16 00:19:18;;;;;;;28.70;24.92;;;9.40;99.90;;;;;;5130285;27;20431;-81
2023/04/16 00:21:45;;;;;;;33.40;25.13;;;9.40;99.90;;;;;;5102126;28;20316;-81
2023/04/16 00:24:12;;;;;;;29.42;24.33;;;9.20;99.90;;;;;;5116768;27;20290;-80
2023/04/16 00:26:43;;;;;;;31.80;25.70;;;9.10;99.90;;;;;;5134994;27;20228;-80
2023/04/16 00:29:11;;;;;;;30.42;25.67;;;9.10;99.90;;;;;;5122150;27;20662;-80
2023/04/16 00:31:38;;;;;;;31.88;25.55;;;8.70;99.90;;;;;;5122268;27;20644;-81
2023/04/16 00:34:05;;;;;;;40.03;28.83;;;8.60;99.90;;;;;;5148710;27;20209;-82
2023/04/16 00:36:32;;;;;;;38.03;30.08;;;8.40;99.90;;;;;;5134650;27;20196;-80
2023/04/16 00:38:59;;;;;;;34.40;26.55;;;8.30;99.90;;;;;;5120586;28;20213;-82
2023/04/16 00:41:26;;;;;;;34.55;26.90;;;8.30;99.90;;;;;;5123920;27;20213;-80
2023/04/16 00:43:53;;;;;;;37.85;26.67;;;8.20;99.90;;;;;;5121029;27;20233;-81
2023/04/16 00:46:22;;;;;;;30.58;24.95;;;8.10;99.90;;;;;;5128266;27;20229;-81
2023/04/16 00:48:51;;;;;;;35.80;27.58;;;8.00;99.90;;;;;;5134537;27;20227;-80
2023/04/16 00:51:20;;;;;;;30.75;26.77;;;7.90;99.90;;;;;;5128411;27;20227;-80
2023/04/16 00:53:47;;;;;;;38.58;28.45;;;8.00;99.90;;;;;;5122628;27;20201;-82
2023/04/16 00:56:15;;;;;;;38.92;25.00;;;7.90;99.90;;;;;;5133174;27;20216;-80
2023/04/16 00:58:43;;;;;;;36.25;27.40;;;7.80;99.90;;;;;;5111921;28;20381;-81
2023/04/16 01:01:10;;;;;;;37.90;26.15;;;7.70;99.90;;;;;;5122707;27;20217;-80
2023/04/16 01:03:40;;;;;;;39.47;26.42;;;7.80;99.90;;;;;;5126790;27;20211;-80
2023/04/16 01:06:08;;;;;;;34.30;26.80;;;7.90;99.90;;;;;;5125141;27;20253;-81
2023/04/16 01:08:35;;;;;;;37.35;26.27;;;8.00;99.90;;;;;;5110913;28;20205;-80
2023/04/16 01:11:03;;;;;;;36.92;25.60;;;8.00;99.90;;;;;;5118471;27;20210;-79
2023/04/16 01:13:30;;;;;;;33.33;26.50;;;8.00;99.90;;;;;;5117552;28;20231;-80
2023/04/16 01:15:57;;;;;;;27.27;23.20;;;8.20;99.90;;;;;;5126079;28;20224;-80
2023/04/16 01:18:25;;;;;;;31.15;24.90;;;8.20;99.90;;;;;;5127544;28;20200;-80
2023/04/16 01:20:52;;;;;;;33.55;24.38;;;8.20;99.90;;;;;;5115782;28;20201;-81
2023/04/16 01:23:19;;;;;;;31.98;26.00;;;8.20;99.90;;;;;;5129835;28;20408;-81
2023/04/16 01:25:46;;;;;;;31.15;25.00;;;8.30;99.90;;;;;;5125374;28;20232;-81
2023/04/16 01:28:13;;;;;;;36.42;26.50;;;8.30;99.90;;;;;;5120736;28;20196;-81
2023/04/16 01:30:40;;;;;;;32.40;24.15;;;8.30;99.90;;;;;;5129046;28;20222;-81
2023/04/16 01:33:09;;;;;;;41.75;29.15;;;8.20;99.90;;;;;;5122542;28;20692;-82
2023/04/16 01:35:37;;;;;;;31.35;26.00;;;8.20;99.90;;;;;;5124584;28;20211;-81
2023/04/16 01:38:06;;;;;;;31.55;26.02;;;8.00;99.90;;;;;;5126139;28;20706;-82
2023/04/16 01:40:34;;;;;;;36.00;27.00;;;7.90;99.90;;;;;;5119652;28;20512;-81
2023/04/16 01:43:02;;;;;;;39.83;29.85;;;7.70;99.90;;;;;;5122994;28;20550;-80
2023/04/16 01:45:31;;;;;;;39.63;29.20;;;7.50;99.90;;;;;;5131008;28;20779;-80
2023/04/16 01:47:58;;;;;;;42.35;30.50;;;7.50;99.90;;;;;;5126021;28;20203;-81
2023/04/16 01:50:25;;;;;;;37.55;31.25;;;7.60;99.90;;;;;;5135407;28;20218;-82
2023/04/16 01:52:52;;;;;;;41.92;30.40;;;7.60;99.90;;;;;;5115627;28;20284;-81
2023/04/16 01:55:19;;;;;;;37.78;31.13;;;7.70;99.90;;;;;;5115466;28;20560;-81
2023/04/16 01:57:46;;;;;;;44.97;33.33;;;7.70;99.90;;;;;;5102880;28;20206;-80
2023/04/16 02:00:13;;;;;;;40.90;33.85;;;7.70;99.90;;;;;;5128633;27;20202;-81
2023/04/16 02:02:40;;;;;;;50.53;36.50;;;7.70;99.90;;;;;;5127942;27;20199;-80
2023/04/16 02:05:07;;;;;;;40.75;33.08;;;7.80;99.90;;;;;;5123454;27;20202;-80
2023/04/16 02:07:35;;;;;;;41.83;34.13;;;7.80;99.90;;;;;;5119103;28;20250;-81
2023/04/16 02:10:03;;;;;;;42.40;35.17;;;7.70;99.90;;;;;;5133612;27;20257;-81
2023/04/16 02:12:30;;;;;;;48.85;38.10;;;7.70;99.90;;;;;;5129793;27;20201;-81
2023/04/16 02:14:57;;;;;;;47.40;38.78;;;7.60;99.90;;;;;;5138092;27;20237;-80
2023/04/16 02:17:23;;;;;;;51.03;39.25;;;7.60;99.90;;;;;;5137893;27;20203;-81
2023/04/16 02:19:50;;;;;;;46.63;36.25;;;7.50;99.90;;;;;;5136394;27;20212;-82
2023/04/16 02:22:17;;;;;;;51.03;38.25;;;7.50;99.90;;;;;;5132028;27;20199;-82
2023/04/16 02:24:44;;;;;;;50.97;36.20;;;7.50;99.90;;;;;;5127023;27;20371;-82
2023/04/16 02:27:11;;;;;;;50.58;39.67;;;7.30;99.90;;;;;;5137941;27;20232;-83
2023/04/16 02:29:39;;;;;;;50.67;39.55;;;7.20;99.90;;;;;;5121079;27;20254;-81
2023/04/16 02:32:06;;;;;;;45.47;37.85;;;7.20;99.90;;;;;;5126256;27;20353;-81
2023/04/16 02:34:33;;;;;;;53.97;39.80;;;7.20;99.90;;;;;;5118988;28;20209;-81
2023/04/16 02:37:00;;;;;;;59.08;41.88;;;7.20;99.90;;;;;;5118171;28;20590;-81
2023/04/16 02:39:27;;;;;;;67.63;52.08;;;7.10;99.90;;;;;;5141193;27;20205;-84
2023/04/16 02:41:55;;;;;;;90.78;63.97;;;7.10;99.90;;;;;;5133386;27;20197;-83
2023/04/16 02:44:21;;;;;;;107.43;84.22;;;7.00;99.90;;;;;;5117652;27;20209;-85
2023/04/16 02:46:49;;;;;;;122.50;91.05;;;7.30;99.90;;;;;;5104036;28;20253;-84
2023/04/16 02:49:16;;;;;;;100.75;82.90;;;7.20;99.90;;;;;;5127865;27;20379;-83
2023/04/16 02:51:43;;;;;;;94.82;74.35;;;7.20;99.90;;;;;;5120708;27;20197;-82
2023/04/16 02:54:09;;;;;;;82.55;66.55;;;7.30;99.90;;;;;;5131060;27;20201;-82
2023/04/16 02:56:37;;;;;;;59.92;50.38;;;7.40;99.90;;;;;;5121356;27;20505;-81
2023/04/16 02:59:04;;;;;;;57.38;48.38;;;7.50;99.90;;;;;;5123313;27;20247;-81
2023/04/16 03:01:30;;;;;;;51.40;43.65;;;7.50;99.90;;;;;;5119317;27;20205;-82
2023/04/16 03:03:58;;;;;;;50.55;39.63;;;7.50;99.90;;;;;;5126968;27;20428;-82
2023/04/16 03:06:25;;;;;;;45.72;36.42;;;7.60;99.90;;;;;;5126150;27;20217;-82
2023/04/16 03:08:53;;;;;;;50.55;37.00;;;7.60;99.90;;;;;;5127163;27;20194;-82
2023/04/16 03:11:20;;;;;;;47.78;35.42;;;7.60;99.90;;;;;;5130886;27;20207;-82
2023/04/16 03:13:48;;;;;;;46.42;36.00;;;7.60;99.90;;;;;;5133916;27;20477;-81
2023/04/16 03:16:15;;;;;;;52.17;35.80;;;7.50;99.90;;;;;;5113396;27;20245;-81
2023/04/16 03:18:42;;;;;;;45.03;35.83;;;7.50;99.90;;;;;;5118226;27;20201;-82
2023/04/16 03:21:09;;;;;;;44.58;34.97;;;7.50;99.90;;;;;;5131514;27;20193;-82
2023/04/16 03:23:37;;;;;;;50.53;36.45;;;7.20;99.90;;;;;;5126832;27;20200;-82
2023/04/16 03:26:05;;;;;;;43.55;32.00;;;7.50;99.90;;;;;;5109066;28;20337;-82
2023/04/16 03:28:32;;;;;;;45.05;33.88;;;7.50;99.90;;;;;;5127788;27;20222;-82
2023/04/16 03:30:59;;;;;;;50.20;32.78;;;7.50;99.90;;;;;;5119253;27;20190;-82
2023/04/16 03:33:25;;;;;;;42.55;32.83;;;7.50;99.90;;;;;;5125730;27;20201;-82
2023/04/16 03:35:58;;;;;;;52.78;32.38;;;7.50;99.90;;;;;;5128844;27;20204;-82
2023/04/16 03:38:25;;;;;;;44.42;33.15;;;7.60;99.90;;;;;;5121266;27;20520;-82
2023/04/16 03:40:52;;;;;;;45.33;32.22;;;7.60;99.90;;;;;;5125222;27;20210;-83
2023/04/16 03:43:19;;;;;;;39.95;31.60;;;7.70;99.90;;;;;;5129331;27;20367;-83
2023/04/16 03:45:46;;;;;;;43.85;32.72;;;7.60;99.90;;;;;;5119042;27;20229;-83
2023/04/16 03:48:13;;;;;;;43.65;32.55;;;7.70;99.90;;;;;;5122637;27;20202;-82
2023/04/16 03:50:45;;;;;;;39.25;29.48;;;7.80;99.90;;;;;;5135230;27;20604;-82
2023/04/16 03:53:12;;;;;;;38.35;29.05;;;7.50;99.90;;;;;;5133264;27;20267;-82
2023/04/16 03:55:39;;;;;;;47.13;34.65;;;7.50;99.90;;;;;;5133963;27;20526;-82
2023/04/16 03:58:06;;;;;;;40.55;31.70;;;7.60;99.90;;;;;;5134083;27;20205;-82
2023/04/16 04:00:33;;;;;;;42.33;34.17;;;7.50;99.90;;;;;;5126999;27;20217;-82
2023/04/16 04:03:02;;;;;;;37.90;29.15;;;7.40;99.90;;;;;;5132619;27;20450;-81
2023/04/16 04:05:29;;;;;;;38.72;29.58;;;7.60;99.90;;;;;;5125968;27;20201;-82
2023/04/16 04:07:56;;;;;;;43.45;31.45;;;7.50;99.90;;;;;;5111082;27;20423;-81
2023/04/16 04:10:26;;;;;;;40.72;30.45;;;7.60;99.90;;;;;;5135890;27;20201;-82
2023/04/16 04:12:52;;;;;;;37.90;29.70;;;7.70;99.90;;;;;;5127389;27;20743;-83
2023/04/16 04:15:19;;;;;;;42.83;31.02;;;7.60;99.90;;;;;;5121657;27;20625;-82
2023/04/16 04:17:46;;;;;;;42.28;29.45;;;7.70;99.90;;;;;;5131757;27;20192;-83
2023/04/16 04:20:13;;;;;;;38.10;29.30;;;7.90;99.90;;;;;;5133855;27;20210;-83
2023/04/16 04:22:40;;;;;;;39.47;27.50;;;8.00;99.90;;;;;;5128273;27;20247;-83
2023/04/16 04:25:09;;;;;;;35.38;29.83;;;8.00;99.90;;;;;;5103419;27;20208;-81
2023/04/16 04:27:36;;;;;;;39.38;28.35;;;8.10;99.90;;;;;;5125068;27;20577;-81
2023/04/16 04:30:04;;;;;;;38.78;29.05;;;8.10;99.90;;;;;;5125650;27;20694;-82
2023/04/16 04:32:31;;;;;;;34.83;27.83;;;8.20;99.90;;;;;;5108317;27;20198;-82
2023/04/16 04:35:01;;;;;;;44.30;28.67;;;8.40;99.90;;;;;;5101352;27;20225;-81
2023/04/16 04:37:28;;;;;;;37.58;28.25;;;8.40;99.90;;;;;;5122651;27;20282;-83
2023/04/16 04:39:55;;;;;;;37.92;28.85;;;8.20;99.90;;;;;;5134330;27;20238;-81
2023/04/16 04:42:23;;;;;;;36.55;27.10;;;8.30;99.90;;;;;;5146068;27;20205;-81
2023/04/16 04:44:50;;;;;;;36.80;26.80;;;8.30;99.90;;;;;;5138707;27;20205;-82
2023/04/16 04:47:17;;;;;;;39.75;29.05;;;8.40;99.90;;;;;;5144190;27;20258;-83
2023/04/16 04:49:45;;;;;;;40.20;28.52;;;8.50;99.90;;;;;;5102338;28;20224;-81
2023/04/16 04:52:11;;;;;;;34.20;24.15;;;8.40;99.90;;;;;;5133429;27;20194;-83
2023/04/16 04:54:40;;;;;;;35.92;27.85;;;8.30;99.90;;;;;;5135323;27;20189;-83
2023/04/16 04:57:08;;;;;;;36.75;26.75;;;8.50;99.90;;;;;;5120868;27;20796;-81
2023/04/16 04:59:35;;;;;;;36.30;28.15;;;8.40;99.90;;;;;;5134464;27;20232;-81
2023/04/16 05:02:02;;;;;;;39.78;27.52;;;8.50;99.90;;;;;;5124137;27;20205;-81
2023/04/16 05:04:30;;;;;;;34.92;24.13;;;8.60;99.90;;;;;;5124087;27;20610;-81
2023/04/16 05:06:57;;;;;;;38.35;26.77;;;8.70;99.90;;;;;;5131100;27;20239;-81
2023/04/16 05:09:24;;;;;;;32.60;25.25;;;8.60;99.90;;;;;;5119490;27;20240;-81
2023/04/16 05:11:52;;;;;;;32.50;24.58;;;8.40;99.90;;;;;;5129095;27;20219;-81
2023/04/16 05:14:19;;;;;;;38.35;26.38;;;8.40;99.90;;;;;;5125426;27;20226;-81
2023/04/16 05:16:48;;;;;;;38.90;27.30;;;8.70;99.90;;;;;;5119878;28;20564;-81
2023/04/16 05:19:15;;;;;;;34.42;23.10;;;8.90;99.90;;;;;;5121010;28;20427;-81
2023/04/16 05:21:42;;;;;;;32.28;24.05;;;9.30;99.90;;;;;;5102483;28;20197;-81
2023/04/16 05:24:10;;;;;;;38.00;24.70;;;9.50;99.90;;;;;;5119433;28;20205;-81
2023/04/16 05:26:40;;;;;;;34.67;26.65;;;9.80;99.90;;;;;;5103732;28;20260;-81
2023/04/16 05:29:07;;;;;;;30.95;22.60;;;10.10;99.90;;;;;;5130211;28;20199;-81
2023/04/16 05:31:35;;;;;;;28.85;21.92;;;10.20;99.90;;;;;;5124338;28;20227;-81
2023/04/16 05:34:02;;;;;;;41.47;23.33;;;10.10;99.90;;;;;;5123352;28;20239;-81
2023/04/16 05:36:29;;;;;;;33.47;22.67;;;10.20;99.90;;;;;;5105342;28;20222;-82
2023/04/16 05:38:56;;;;;;;28.92;22.40;;;10.30;99.90;;;;;;5133151;27;20284;-82
2023/04/16 05:41:23;;;;;;;36.42;23.13;;;10.40;99.90;;;;;;5136119;27;20245;-83
2023/04/16 05:43:50;;;;;;;34.53;21.67;;;10.60;99.90;;;;;;5134131;27;20336;-83
2023/04/16 05:46:17;;;;;;;37.17;23.45;;;10.60;99.90;;;;;;5116887;28;20232;-82
2023/04/16 05:48:43;;;;;;;28.15;22.15;;;10.90;99.90;;;;;;5116387;27;20214;-81
2023/04/16 05:51:11;;;;;;;31.98;20.85;;;11.20;99.90;;;;;;5139120;27;20712;-80
2023/04/16 05:53:38;;;;;;;29.17;19.73;;;11.80;99.90;;;;;;5129419;27;20202;-81
2023/04/16 05:56:05;;;;;;;21.00;18.73;;;12.30;99.90;;;;;;5131954;27;20230;-80
2023/04/16 05:58:32;;;;;;;26.50;20.67;;;12.40;99.90;;;;;;5137967;27;20197;-81
2023/04/16 06:01:00;;;;;;;29.58;20.48;;;12.60;99.90;;;;;;5113279;27;20653;-81
2023/04/16 06:03:28;;;;;;;26.38;21.23;;;12.80;99.90;;;;;;5129568;27;20246;-80
2023/04/16 06:05:55;;;;;;;30.52;23.02;;;13.00;99.90;;;;;;5127129;27;20565;-81
2023/04/16 06:08:22;;;;;;;27.67;19.00;;;13.30;99.90;;;;;;5129410;27;20221;-81
2023/04/16 06:10:49;;;;;;;32.40;23.15;;;13.00;99.90;;;;;;5131797;27;20202;-82
2023/04/16 06:13:17;;;;;;;31.60;21.00;;;12.60;99.90;;;;;;5129715;27;20531;-80
2023/04/16 06:15:46;;;;;;;28.60;20.15;;;12.70;99.90;;;;;;5140142;27;20201;-81
2023/04/16 06:18:13;;;;;;;32.15;23.52;;;12.80;99.90;;;;;;5121103;27;20232;-81
2023/04/16 06:20:40;;;;;;;30.90;22.00;;;12.90;99.90;;;;;;5136695;27;20201;-82
2023/04/16 06:23:07;;;;;;;29.35;20.58;;;12.40;99.90;;;;;;5132076;27;20205;-81
2023/04/16 06:25:34;;;;;;;32.58;24.48;;;12.20;99.90;;;;;;5127612;27;20214;-82
2023/04/16 06:28:01;;;;;;;27.08;20.95;;;12.20;99.90;;;;;;5123539;27;20216;-81
2023/04/16 06:30:27;;;;;;;31.75;21.88;;;12.30;99.90;;;;;;5139687;27;20398;-82
2023/04/16 06:32:55;;;;;;;30.85;20.73;;;12.10;99.90;;;;;;5111309;27;20743;-81
2023/04/16 06:35:23;;;;;;;28.98;19.70;;;12.30;99.90;;;;;;5132002;27;20201;-81
2023/04/16 06:37:50;;;;;;;26.60;18.80;;;12.30;99.90;;;;;;5119161;27;20201;-81
2023/04/16 06:40:17;;;;;;;24.80;19.55;;;12.10;99.90;;;;;;5108956;27;20201;-81
2023/04/16 06:42:45;;;;;;;23.85;18.38;;;12.10;99.90;;;;;;5140502;27;20387;-81
2023/04/16 06:45:12;;;;;;;24.17;19.08;;;12.20;99.90;;;;;;5134022;27;20246;-82
2023/04/16 06:47:40;;;;;;;26.52;19.92;;;12.30;99.90;;;;;;5123955;27;20229;-82
2023/04/16 06:50:07;;;;;;;25.27;19.30;;;12.50;99.90;;;;;;5116070;28;20255;-82
2023/04/16 06:52:35;;;;;;;26.17;19.75;;;12.80;99.90;;;;;;5126114;27;20209;-82
2023/04/16 06:55:02;;;;;;;25.83;18.27;;;12.60;99.90;;;;;;5115042;27;20254;-82
2023/04/16 06:57:29;;;;;;;26.67;19.55;;;12.80;99.90;;;;;;5126993;27;20239;-82
2023/04/16 06:59:56;;;;;;;22.45;17.40;;;13.60;99.90;;;;;;5120726;27;20216;-81
2023/04/16 07:02:23;;;;;;;25.73;19.52;;;14.10;99.90;;;;;;5129457;27;20193;-81
2023/04/16 07:04:51;;;;;;;24.52;18.23;;;15.20;99.90;;;;;;5133392;27;20201;-81
2023/04/16 07:07:18;;;;;;;22.60;18.47;;;15.90;99.90;;;;;;5113905;27;20228;-81
2023/04/16 07:09:45;;;;;;;18.00;14.90;;;17.10;99.90;;;;;;5134251;27;20463;-80
2023/04/16 07:12:12;;;;;;;21.00;16.50;;;18.50;99.90;;;;;;5128862;27;20490;-79
2023/04/16 07:14:40;;;;;;;25.37;19.03;;;18.60;99.90;;;;;;5125792;27;20412;-79
2023/04/16 07:17:07;;;;;;;23.30;17.97;;;18.30;99.90;;;;;;5114827;27;20646;-81
2023/04/16 07:19:34;;;;;;;22.93;17.63;;;18.10;99.90;;;;;;5125115;27;20596;-80
2023/04/16 07:22:01;;;;;;;25.20;17.53;;;17.10;99.90;;;;;;5128824;27;20457;-80
2023/04/16 07:24:29;;;;;;;22.43;18.33;;;16.50;99.90;;;;;;5124204;27;20766;-80
2023/04/16 07:26:56;;;;;;;21.97;19.63;;;16.10;99.90;;;;;;5127545;27;20672;-80
2023/04/16 07:29:23;;;;;;;24.50;20.30;;;16.70;99.90;;;;;;5127639;27;20417;-82
2023/04/16 07:31:50;;;;;;;24.13;17.60;;;17.90;99.90;;;;;;5128228;27;20447;-81
2023/04/16 07:34:17;;;;;;;23.60;18.60;;;19.20;99.90;;;;;;5130705;27;20523;-80
2023/04/16 07:36:44;;;;;;;21.60;17.87;;;19.30;99.90;;;;;;5131963;27;20489;-80
2023/04/16 07:39:12;;;;;;;25.50;17.73;;;19.90;99.90;;;;;;5127480;27;20449;-80
2023/04/16 07:41:40;;;;;;;19.80;16.07;;;21.60;99.90;;;;;;5110176;28;20891;-80
2023/04/16 07:44:08;;;;;;;18.03;16.10;;;24.20;99.90;;;;;;5119440;27;20438;-80
2023/04/16 07:46:35;;;;;;;20.60;17.33;;;25.70;99.90;;;;;;5121999;27;20476;-79
2023/04/16 07:49:12;;;;;;;18.60;16.63;;;26.00;99.90;;;;;;5121410;27;20452;-80
2023/04/16 07:51:40;;;;;;;19.93;17.10;;;25.60;99.90;;;;;;5119633;27;20595;-79
2023/04/16 07:54:06;;;;;;;27.77;17.47;;;25.10;99.90;;;;;;5127116;27;20829;-81
2023/04/16 07:56:35;;;;;;;20.03;17.73;;;26.60;98.70;;;;;;5120080;27;20438;-81
2023/04/16 07:59:02;;;;;;;17.70;15.90;;;27.30;96.30;;;;;;5103144;27;20442;-81
2023/04/16 08:01:48;;;;;;;20.60;17.30;;;28.20;92.40;;;;;;5121591;27;20423;-80
2023/04/16 08:04:21;;;;;;;21.30;18.23;;;28.10;90.70;;;;;;5137602;27;20468;-80
2023/04/16 08:06:50;;;;;;;18.87;16.27;;;27.00;93.10;;;;;;5124321;27;20516;-81
2023/04/16 08:09:23;;;;;;;18.07;16.23;;;27.40;90.80;;;;;;5121007;27;20448;-80
2023/04/16 08:11:50;;;;;;;20.13;17.00;;;27.80;92.50;;;;;;5127163;27;20467;-80
2023/04/16 08:14:17;;;;;;;23.10;18.20;;;28.20;90.00;;;;;;5128315;27;20642;-80
2023/04/16 08:16:44;;;;;;;22.23;19.70;;;28.90;86.30;;;;;;5140204;27;20425;-80
2023/04/16 08:19:11;;;;;;;21.77;19.47;;;29.80;80.30;;;;;;5127475;27;21062;-80
2023/04/16 08:21:38;;;;;;;20.03;17.93;;;29.60;79.10;;;;;;5126022;27;20434;-80
2023/04/16 08:24:07;;;;;;;20.07;17.90;;;28.40;81.40;;;;;;5119676;27;20688;-80
2023/04/16 08:26:34;;;;;;;20.87;17.83;;;28.40;82.80;;;;;;5127668;27;20494;-82
2023/04/16 08:29:01;;;;;;;21.03;16.70;;;28.60;82.50;;;;;;5132924;27;20462;-80
2023/04/16 08:31:28;;;;;;;20.93;18.83;;;29.00;81.40;;;;;;5122932;27;20438;-79
2023/04/16 08:33:55;;;;;;;18.33;16.50;;;29.50;78.10;;;;;;5123528;27;20744;-80
2023/04/16 08:36:21;;;;;;;18.00;16.07;;;30.00;77.90;;;;;;5108521;28;20405;-79
2023/04/16 08:38:51;;;;;;;18.97;16.10;;;29.70;77.70;;;;;;5119076;27;20442;-79
2023/04/16 08:41:20;;;;;;;20.13;17.13;;;30.90;72.70;;;;;;5111539;28;20442;-79
2023/04/16 08:43:50;;;;;;;18.67;16.77;;;31.00;72.30;;;;;;5129943;27;20476;-79
2023/04/16 08:46:21;;;;;;;18.90;16.27;;;31.70;68.30;;;;;;5118126;27;20479;-82
2023/04/16 08:48:55;;;;;;;19.57;15.43;;;31.00;67.50;;;;;;5122866;27;20469;-79
2023/04/16 08:51:23;;;;;;;16.97;15.13;;;30.10;69.50;;;;;;5149490;27;20429;-78
2023/04/16 08:54:01;;;;;;;15.43;11.73;;;29.20;73.80;;;;;;5152886;27;20430;-79
2023/04/16 08:56:30;;;;;;;13.40;12.00;;;28.80;70.10;;;;;;5145977;27;20433;-78
2023/04/16 08:58:57;;;;;;;17.07;14.10;;;27.70;74.00;;;;;;5135079;27;20444;-80
2023/04/16 09:01:25;;;;;;;14.50;12.90;;;26.50;77.80;;;;;;5127772;27;20738;-78
2023/04/16 09:03:53;;;;;;;13.20;10.03;;;25.40;84.30;;;;;;5102811;27;20456;-79
2023/04/16 09:06:21;;;;;;;8.37;7.50;;;24.20;91.50;;;;;;5102888;27;20444;-80
2023/04/16 09:08:48;;;;;;;7.30;6.40;;;25.30;87.70;;;;;;5129254;27;20518;-81
2023/04/16 09:11:17;;;;;;;7.37;6.47;;;25.30;84.80;;;;;;5130137;27;20442;-79
2023/04/16 09:13:45;;;;;;;7.43;6.47;;;25.30;83.20;;;;;;5118078;28;20413;-81
2023/04/16 09:16:14;;;;;;;7.37;6.60;;;25.00;84.50;;;;;;5129764;27;20407;-80
2023/04/16 09:18:42;;;;;;;6.90;6.20;;;24.90;86.00;;;;;;5131276;28;20509;-80
2023/04/16 09:21:10;;;;;;;10.87;7.40;;;24.20;87.90;;;;;;5131537;28;20442;-81
2023/04/16 09:23:40;;;;;;;7.97;6.17;;;24.20;90.50;;;;;;5111873;28;20438;-79
2023/04/16 09:26:06;;;;;;;7.10;5.90;;;24.10;89.60;;;;;;5131654;28;20484;-79
2023/04/16 09:28:42;;;;;;;6.73;5.20;;;23.00;95.50;;;;;;5111899;28;20515;-80
2023/04/16 09:31:16;;;;;;;6.63;4.57;;;22.30;97.80;;;;;;5128439;28;20773;-80
2023/04/16 09:33:59;;;;;;;6.73;5.50;;;20.30;99.90;;;;;;5126876;28;20664;-80
2023/04/16 09:36:27;;;;;;;4.37;3.97;;;19.80;99.90;;;;;;5126767;28;20962;-82
2023/04/16 09:38:54;;;;;;;3.70;3.30;;;19.40;99.90;;;;;;5108343;28;20448;-80
2023/04/16 09:41:28;;;;;;;7.27;5.07;;;18.80;99.90;;;;;;5123928;28;20501;-79
2023/04/16 09:43:56;;;;;;;8.30;6.20;;;18.90;99.90;;;;;;5135468;28;20407;-80
2023/04/16 09:46:43;;;;;;;6.30;5.20;;;18.50;99.90;;;;;;5128505;28;20415;-80
2023/04/16 09:49:14;;;;;;;9.83;6.93;;;18.00;99.90;;;;;;5115359;28;20477;-78
2023/04/16 09:51:43;;;;;;;8.43;6.63;;;18.10;99.90;;;;;;5123269;28;20996;-78
2023/04/16 09:54:10;;;;;;;8.70;6.23;;;18.20;99.90;;;;;;5121848;28;20456;-79
2023/04/16 09:56:45;;;;;;;8.53;6.90;;;18.20;99.90;;;;;;5130534;28;20411;-79
2023/04/16 09:59:22;;;;;;;8.40;7.23;;;18.20;99.90;;;;;;5133140;28;20410;-80
2023/04/16 10:01:51;;;;;;;6.47;5.63;;;18.10;99.90;;;;;;5127517;28;20440;-83
2023/04/16 10:04:50;;;;;;;7.00;5.63;;;18.30;99.90;;;;;;5123814;28;20528;-81
2023/04/16 10:07:18;;;;;;;6.87;5.57;;;18.00;99.90;;;;;;5130522;27;21306;-80
2023/04/16 10:09:49;;;;;;;8.30;6.30;;;18.00;99.90;;;;;;5120589;28;20444;-79
2023/04/16 10:12:15;;;;;;;9.93;8.27;;;17.70;99.90;;;;;;5116426;28;20443;-79
2023/04/16 10:14:45;;;;;;;6.47;5.73;;;17.70;99.90;;;;;;5135844;28;20442;-79
2023/04/16 10:17:16;;;;;;;7.20;6.50;;;17.70;99.90;;;;;;5134557;28;20440;-82
2023/04/16 10:19:45;;;;;;;9.07;7.33;;;17.70;99.90;;;;;;5121363;28;20480;-78
2023/04/16 10:22:12;;;;;;;7.50;6.40;;;17.10;99.90;;;;;;5120995;27;20412;-80
2023/04/16 10:24:40;;;;;;;11.23;6.27;;;17.10;99.90;;;;;;5129559;27;20422;-80
2023/04/16 10:27:07;;;;;;;7.30;6.13;;;17.10;99.90;;;;;;5132065;27;20454;-80
2023/04/16 10:29:35;;;;;;;6.63;4.73;;;16.90;99.90;;;;;;5116432;27;20449;-79
2023/04/16 10:32:05;;;;;;;5.00;4.50;;;16.70;99.90;;;;;;5112719;27;20512;-81
2023/04/16 10:34:33;;;;;;;5.70;3.40;;;16.50;99.90;;;;;;5137274;27;20420;-80
2023/04/16 10:37:00;;;;;;;3.43;3.00;;;16.50;99.90;;;;;;5139565;27;20432;-80
2023/04/16 10:39:28;;;;;;;2.50;2.20;;;16.60;99.90;;;;;;5121253;27;20445;-80
2023/04/16 10:42:09;;;;;;;3.13;2.83;;;16.90;99.90;;;;;;5115885;28;20442;-80
2023/04/16 10:44:38;;;;;;;4.07;2.70;;;17.10;99.90;;;;;;5136864;27;20599;-81
2023/04/16 10:47:11;;;;;;;3.73;3.03;;;16.40;99.90;;;;;;5132168;27;20490;-82
2023/04/16 10:49:39;;;;;;;2.90;1.93;;;16.30;99.90;;;;;;5140046;27;20435;-79
2023/04/16 10:52:10;;;;;;;6.10;2.83;;;16.30;99.90;;;;;;5127916;27;20852;-79
2023/04/16 10:54:39;;;;;;;4.33;3.93;;;16.50;99.90;;;;;;5132082;27;20446;-80
2023/04/16 10:57:09;;;;;;;3.67;3.37;;;16.90;99.90;;;;;;5118521;27;20449;-81
2023/04/16 10:59:40;;;;;;;5.63;4.33;;;16.90;99.90;;;;;;5115746;27;20642;-80
2023/04/16 11:02:17;;;;;;;4.43;3.90;;;17.20;99.90;;;;;;5113101;28;20438;-79
2023/04/16 11:04:49;;;;;;;4.67;3.40;;;17.50;99.90;;;;;;5138460;27;20488;-81
2023/04/16 11:07:18;;;;;;;4.03;2.77;;;17.30;99.90;;;;;;5124943;27;20414;-80
2023/04/16 11:10:03;;;;;;;3.53;3.23;;;17.20;99.90;;;;;;5131568;27;20478;-79
2023/04/16 11:12:40;;;;;;;3.47;3.10;;;17.40;99.90;;;;;;5132620;27;20464;-81
2023/04/16 11:15:08;;;;;;;2.77;2.33;;;17.70;99.90;;;;;;5123089;27;20404;-83
2023/04/16 11:17:51;;;;;;;3.03;2.43;;;17.70;99.90;;;;;;5128739;27;20432;-79
2023/04/16 11:20:25;;;;;;;4.87;2.83;;;17.20;99.90;;;;;;5133750;27;20438;-81
2023/04/16 11:22:55;;;;;;;3.20;2.90;;;17.00;99.90;;;;;;5116635;27;20437;-80
2023/04/16 11:25:30;;;;;;;3.97;2.93;;;16.70;99.90;;;;;;5110978;27;20425;-79
2023/04/16 11:27:57;;;;;;;3.00;2.77;;;16.40;99.90;;;;;;5138168;27;20544;-79
2023/04/16 11:30:37;;;;;;;4.97;3.67;;;16.40;99.90;;;;;;5127051;27;20438;-80
2023/04/16 11:33:06;;;;;;;3.43;3.07;;;16.80;99.90;;;;;;5127291;27;20438;-81
2023/04/16 11:35:33;;;;;;;4.33;3.50;;;17.10;99.90;;;;;;5132401;27;20483;-79
2023/04/16 11:38:01;;;;;;;4.80;3.30;;;17.00;99.90;;;;;;5135978;27;20419;-80
2023/04/16 11:40:30;;;;;;;3.77;3.43;;;16.80;99.90;;;;;;5130093;27;20491;-78
2023/04/16 11:43:15;;;;;;;5.20;4.00;;;16.80;99.90;;;;;;5125213;27;20662;-81
2023/04/16 11:45:56;;;;;;;3.37;3.07;;;17.00;99.90;;;;;;5108878;27;20442;-80
2023/04/16 11:48:23;;;;;;;4.03;3.43;;;16.80;99.90;;;;;;5125387;27;20531;-80
2023/04/16 11:50:57;;;;;;;4.73;3.63;;;16.30;99.90;;;;;;5120760;27;20448;-80
2023/04/16 11:53:24;;;;;;;3.70;2.67;;;16.40;99.90;;;;;;5123759;27;20781;-81
2023/04/16 11:55:52;;;;;;;4.70;4.03;;;16.60;99.90;;;;;;5126967;27;20434;-79
2023/04/16 11:58:21;;;;;;;4.63;3.97;;;16.80;99.90;;;;;;5126619;27;20463;-79
2023/04/16 12:00:52;;;;;;;3.30;3.00;;;16.70;99.90;;;;;;5120756;27;20438;-82
2023/04/16 12:03:37;;;;;;;3.23;2.93;;;16.70;99.90;;;;;;5135571;27;20418;-80
2023/04/16 12:06:08;;;;;;;4.17;3.77;;;16.80;99.90;;;;;;5122566;27;20532;-81
2023/04/16 12:08:35;;;;;;;3.87;3.47;;;17.00;99.90;;;;;;5132798;27;20495;-79
2023/04/16 12:11:02;;;;;;;4.03;3.13;;;16.70;99.90;;;;;;5128738;27;20776;-79
2023/04/16 12:13:29;;;;;;;4.30;3.47;;;16.60;99.90;;;;;;5128302;27;20430;-79
2023/04/16 12:15:56;;;;;;;3.33;3.03;;;16.80;99.90;;;;;;5129093;27;20901;-80
2023/04/16 12:18:27;;;;;;;5.30;3.60;;;16.80;99.90;;;;;;5113800;28;20639;-81
2023/04/16 12:20:54;;;;;;;3.43;3.10;;;17.10;99.90;;;;;;5132524;27;20438;-80
2023/04/16 12:23:33;;;;;;;5.43;3.00;;;17.10;99.90;;;;;;5133179;27;20437;-79
2023/04/16 12:26:09;;;;;;;3.17;2.93;;;17.10;99.90;;;;;;5119976;27;20509;-78
2023/04/16 12:28:37;;;;;;;4.30;3.50;;;17.30;99.90;;;;;;5103901;28;20481;-79
2023/04/16 12:31:06;;;;;;;3.37;3.07;;;17.20;99.90;;;;;;5113934;27;20438;-80
2023/04/16 12:33:33;;;;;;;3.30;3.00;;;16.90;99.90;;;;;;5122673;27;20434;-81
2023/04/16 12:36:00;;;;;;;3.20;3.00;;;16.80;99.90;;;;;;5124387;27;20446;-80
2023/04/16 12:38:31;;;;;;;4.07;3.70;;;16.90;99.90;;;;;;5126126;27;20405;-81
2023/04/16 12:40:58;;;;;;;5.60;3.70;;;16.70;99.90;;;;;;5110196;27;20451;-81
2023/04/16 12:43:25;;;;;;;5.73;3.13;;;16.40;99.90;;;;;;5110058;28;20487;-78